Lucedale, Mississippi
Current Conditions -  °F | °C
As of 2:56 AM on Wednesday 22 Oct 2014 (Local Time) from KMOB Reporting Station
Clear Clear  
Wind Chill: 59°   Ceiling: Unl
Heat Index: 59°   Visibility: 10mi
Dew Point: 54°   Wind: 7mph
Humidity: 83%   Direction: 10°N
Pressure: 30.03"   Gusts: NA
Location:  30.93°N, 88.59°W
Report Text: KMOB 220756Z AUTO 01006KT 10SM CLR 15/12 A3003 RMK AO2 SLP167 T01500122
Loading
Personal Weather Stations






























Interactive Weather Map
Tropical Storm Tracking
New forecast layout! Learn more

10-Day Weather Forecast

Advertisements
Track Severe Weather on mobile